Archival Weather

Basrah Intl

Basrah Intl, Iraq (ORMM)

Report from: Wednesday, September 28, 2022 12:00 AM UTC
Current time: Sunday, July 14, 2024 12:39 AM UTC

Current weather – Weather history – Daily summaries
Weather forecast

Temperature18.0°C (64.4°F)
Dew point-5.0°C (23.0°F)
Winds 2 kts (1 m/s, 2.3 mph) Vrb
Winds variableWinds variable
Clouds Sky clear
Altimeter29.77 in.Hg (1008 mB)
Relative humidity20 %
Density altitude601 ft. (183 m)
Remarks Ceiling and visibility OK
No significant changes expected in the next two hours
Flight conditions Visual Meteorological Conditions
Raw dataORMM 280000Z VRB02KT CAVOK 18/M05 Q1008 NOSIG
An error has occurred. This application may no longer respond until reloaded. Reload 🗙